Time;durP1;ratioP1;P1;durP2;ratioP2;P2;SDS_P1;SDS_P2;PMS_P1;PMS_P2;Temp;Humidity;BMP_temperature;BMP_pressure;BME280_temperature;BME280_humidity;BME280_pressure;Samples;Min_cycle;Max_cycle;Signal;HPM_P1;HPM_P2
2022/08/16 00:00:43;;;;;;;1999.90;999.90;;;20.00;99.90;;;;;;5034426;28;20557;-61
2022/08/16 00:03:11;;;;;;;1999.90;999.90;;;20.00;99.90;;;;;;5034654;28;20187;-61
2022/08/16 00:05:39;;;;;;;1999.90;999.90;;;20.00;99.90;;;;;;5034540;28;20201;-61
2022/08/16 00:08:07;;;;;;;1999.90;999.90;;;20.10;99.90;;;;;;5034776;28;20192;-61
2022/08/16 00:10:35;;;;;;;1999.90;999.90;;;20.10;99.90;;;;;;5034742;28;20209;-61
2022/08/16 00:13:06;;;;;;;1999.90;999.90;;;20.20;99.90;;;;;;5034391;28;20211;-62
2022/08/16 00:15:37;;;;;;;1999.90;999.90;;;20.20;99.90;;;;;;5034748;28;20177;-61
2022/08/16 00:18:04;;;;;;;1999.90;999.90;;;20.20;99.90;;;;;;5034719;28;20177;-61
2022/08/16 00:20:32;;;;;;;1999.90;999.90;;;20.20;99.90;;;;;;5033980;28;20329;-62
2022/08/16 00:22:59;;;;;;;1999.90;999.90;;;20.20;99.90;;;;;;5034470;28;20197;-61
2022/08/16 00:25:28;;;;;;;1999.90;999.90;;;20.20;99.90;;;;;;5034526;28;20210;-62
2022/08/16 00:27:55;;;;;;;1999.90;999.90;;;20.10;99.90;;;;;;5034014;28;20611;-61
2022/08/16 00:30:23;;;;;;;1999.90;999.90;;;20.10;99.90;;;;;;5034113;28;20201;-62
2022/08/16 00:32:52;;;;;;;1999.90;999.90;;;20.10;99.90;;;;;;5032769;28;20236;-61
2022/08/16 00:35:24;;;;;;;1999.90;999.90;;;20.00;99.90;;;;;;5033936;28;20205;-62
2022/08/16 00:37:51;;;;;;;1999.90;999.90;;;19.90;99.90;;;;;;5034064;28;20202;-62
2022/08/16 00:40:26;;;;;;;1999.90;999.90;;;19.90;99.90;;;;;;5034121;28;20232;-62
2022/08/16 00:42:54;;;;;;;1999.90;999.90;;;19.80;99.90;;;;;;5033842;28;20183;-62
2022/08/16 00:45:29;;;;;;;1999.90;999.90;;;19.80;99.90;;;;;;5034090;28;20207;-62
2022/08/16 00:47:57;;;;;;;1999.90;999.90;;;19.80;99.90;;;;;;5034003;28;20241;-61
2022/08/16 00:50:30;;;;;;;1999.90;999.90;;;19.70;99.90;;;;;;5034035;28;20199;-62
2022/08/16 00:52:58;;;;;;;1999.90;999.90;;;19.60;99.90;;;;;;5033679;28;20555;-62
2022/08/16 00:55:25;;;;;;;1999.90;999.90;;;19.60;99.90;;;;;;5033875;28;20196;-62
2022/08/16 00:57:57;;;;;;;1999.90;999.90;;;19.70;99.90;;;;;;5033699;28;20210;-61
2022/08/16 01:00:27;;;;;;;1999.90;999.90;;;19.50;99.90;;;;;;5033690;28;20283;-61
2022/08/16 01:02:56;;;;;;;1999.90;999.90;;;19.30;99.90;;;;;;5033643;28;20200;-61
2022/08/16 01:05:24;;;;;;;1999.90;999.90;;;19.20;99.90;;;;;;5033432;28;20223;-62
2022/08/16 01:07:52;;;;;;;1999.90;999.90;;;19.20;99.90;;;;;;5033311;28;20670;-62
2022/08/16 01:10:19;;;;;;;1999.90;999.90;;;19.10;99.90;;;;;;5033615;28;20188;-61
2022/08/16 01:12:47;;;;;;;1999.90;999.90;;;19.20;99.90;;;;;;5033304;28;20196;-62
2022/08/16 01:15:15;;;;;;;1999.90;999.90;;;19.20;99.90;;;;;;5033558;28;20197;-62
2022/08/16 01:17:44;;;;;;;1999.90;999.90;;;19.30;99.90;;;;;;5033507;28;20203;-62
2022/08/16 01:20:13;;;;;;;1999.90;999.90;;;19.40;99.90;;;;;;5033400;28;20196;-62
2022/08/16 01:22:49;;;;;;;1999.90;999.90;;;19.50;99.90;;;;;;5033007;28;20611;-62
2022/08/16 01:25:21;;;;;;;1999.90;999.90;;;19.50;99.90;;;;;;5033492;28;20183;-62
2022/08/16 01:27:52;;;;;;;1999.90;999.90;;;19.50;99.90;;;;;;5033373;28;20185;-62
2022/08/16 01:30:22;;;;;;;1999.90;999.90;;;19.50;99.90;;;;;;5032979;28;20595;-62
2022/08/16 01:32:51;;;;;;;1999.90;999.90;;;19.60;99.90;;;;;;5032879;28;20236;-62
2022/08/16 01:35:22;;;;;;;1999.90;999.90;;;19.60;99.90;;;;;;5033130;28;20197;-62
2022/08/16 01:37:52;;;;;;;1999.90;999.90;;;19.50;99.90;;;;;;5032809;28;20188;-62
2022/08/16 01:40:24;;;;;;;1999.90;999.90;;;19.40;99.90;;;;;;5033065;28;20230;-62
2022/08/16 01:42:53;;;;;;;1999.90;999.90;;;19.40;99.90;;;;;;5033030;28;20186;-61
2022/08/16 01:45:21;;;;;;;1999.90;999.90;;;19.40;99.90;;;;;;5032843;28;20192;-62
2022/08/16 01:47:50;;;;;;;1999.90;999.90;;;19.40;99.90;;;;;;5032631;28;20752;-62
2022/08/16 01:50:19;;;;;;;1999.90;999.90;;;19.40;99.90;;;;;;5032679;28;20204;-62
2022/08/16 01:52:46;;;;;;;1999.90;999.90;;;19.40;99.90;;;;;;5032872;28;20207;-62
2022/08/16 01:55:16;;;;;;;1999.90;999.90;;;19.40;99.90;;;;;;5032534;28;20222;-62
2022/08/16 01:57:44;;;;;;;1999.90;999.90;;;19.50;99.90;;;;;;5032436;28;20699;-62
2022/08/16 02:00:12;;;;;;;1999.90;999.90;;;19.40;99.90;;;;;;5032588;28;20196;-61
2022/08/16 02:02:39;;;;;;;1999.90;999.90;;;19.50;99.90;;;;;;5032633;28;20214;-61
2022/08/16 02:05:07;;;;;;;1999.90;999.90;;;19.50;99.90;;;;;;5032386;28;20200;-62
2022/08/16 02:07:34;;;;;;;1999.90;999.90;;;19.50;99.90;;;;;;5032703;28;20208;-62
2022/08/16 02:10:02;;;;;;;1999.90;999.90;;;19.50;99.90;;;;;;5032713;28;20204;-62
2022/08/16 02:12:31;;;;;;;1999.90;999.90;;;19.50;99.90;;;;;;5032192;28;20655;-62
2022/08/16 02:14:59;;;;;;;1999.90;999.90;;;19.50;99.90;;;;;;5032683;28;20198;-61
2022/08/16 02:17:27;;;;;;;1999.90;999.90;;;19.40;99.90;;;;;;5032551;28;20227;-62
2022/08/16 02:19:55;;;;;;;1999.90;999.90;;;19.40;99.90;;;;;;5032250;28;20200;-61
2022/08/16 02:22:23;;;;;;;1999.90;999.90;;;19.30;99.90;;;;;;5032091;28;20711;-62
2022/08/16 02:24:51;;;;;;;1999.90;999.90;;;19.30;99.90;;;;;;5032471;28;20222;-61
2022/08/16 02:27:18;;;;;;;1999.90;999.90;;;19.30;99.90;;;;;;5032388;28;20204;-61
2022/08/16 02:29:45;;;;;;;1999.90;999.90;;;19.40;99.90;;;;;;5032249;28;20200;-61
2022/08/16 02:32:16;;;;;;;1999.90;999.90;;;19.30;99.90;;;;;;5032098;28;20196;-61
2022/08/16 02:34:43;;;;;;;1999.90;999.90;;;19.20;99.90;;;;;;5032395;28;20242;-61
2022/08/16 02:37:10;;;;;;;1999.90;999.90;;;19.10;99.90;;;;;;5031993;28;20202;-61
2022/08/16 02:39:37;;;;;;;1999.90;999.90;;;19.00;99.90;;;;;;5031736;28;20204;-62
2022/08/16 02:42:05;;;;;;;1999.90;999.90;;;19.00;99.90;;;;;;5031801;28;20220;-62
2022/08/16 02:44:32;;;;;;;1999.90;999.90;;;18.90;99.90;;;;;;5032325;28;20222;-62
2022/08/16 02:46:59;;;;;;;1999.90;999.90;;;19.00;99.90;;;;;;5032240;28;20200;-61
2022/08/16 02:49:27;;;;;;;1999.90;999.90;;;19.00;99.90;;;;;;5032265;28;20206;-62
2022/08/16 02:51:54;;;;;;;1999.90;999.90;;;19.00;99.90;;;;;;5031944;28;20200;-62
2022/08/16 02:54:22;;;;;;;1999.90;999.90;;;19.00;99.90;;;;;;5032248;28;20197;-62
2022/08/16 02:56:50;;;;;;;1999.90;999.90;;;19.00;99.90;;;;;;5034608;28;20208;-62
2022/08/16 02:59:17;;;;;;;1999.90;999.90;;;19.00;99.90;;;;;;5035810;28;20196;-62
2022/08/16 03:01:44;;;;;;;1999.90;999.90;;;18.90;99.90;;;;;;5035932;28;20215;-61
2022/08/16 03:04:11;;;;;;;1999.90;999.90;;;18.90;99.90;;;;;;5035662;28;20208;-60
2022/08/16 03:06:39;;;;;;;1999.90;999.90;;;18.80;99.90;;;;;;5035976;28;20193;-61
2022/08/16 03:09:06;;;;;;;1999.90;999.90;;;18.70;99.90;;;;;;5035942;28;20196;-61
2022/08/16 03:11:34;;;;;;;1999.90;999.90;;;18.50;99.90;;;;;;5035447;28;20197;-61
2022/08/16 03:14:02;;;;;;;1999.90;999.90;;;18.50;99.90;;;;;;5035892;28;20560;-61
2022/08/16 03:16:29;;;;;;;1999.90;999.90;;;18.40;99.90;;;;;;5035458;28;20579;-61
2022/08/16 03:18:56;;;;;;;1999.90;999.90;;;18.40;99.90;;;;;;5035733;28;20196;-61
2022/08/16 03:21:24;;;;;;;1999.90;999.90;;;18.40;99.90;;;;;;5035670;28;20333;-61
2022/08/16 03:23:52;;;;;;;1999.90;999.90;;;18.40;99.90;;;;;;5035605;28;20200;-61
2022/08/16 03:26:20;;;;;;;1999.90;999.90;;;18.50;99.90;;;;;;5035606;28;20208;-61
2022/08/16 03:28:47;;;;;;;1999.90;999.90;;;18.50;99.90;;;;;;5035414;28;20198;-61
2022/08/16 03:31:14;;;;;;;1999.90;999.90;;;18.60;99.90;;;;;;5035087;28;20200;-61
2022/08/16 03:33:42;;;;;;;1999.90;999.90;;;18.50;99.90;;;;;;5034998;28;20227;-61
2022/08/16 03:36:09;;;;;;;1999.90;999.90;;;18.40;99.90;;;;;;5035088;28;20203;-62
2022/08/16 03:38:36;;;;;;;1999.90;999.90;;;18.30;99.90;;;;;;5035327;28;20203;-62
2022/08/16 03:41:06;;;;;;;1999.90;999.90;;;18.30;99.90;;;;;;5034939;28;20220;-61
2022/08/16 03:43:34;;;;;;;1999.90;999.90;;;18.30;99.90;;;;;;5034974;28;20684;-61
2022/08/16 03:46:02;;;;;;;1999.90;999.90;;;18.40;99.90;;;;;;5035290;28;20210;-62
2022/08/16 03:48:32;;;;;;;1999.90;999.90;;;18.50;99.90;;;;;;5034912;28;20212;-62
2022/08/16 03:51:00;;;;;;;1999.90;999.90;;;18.60;99.90;;;;;;5034794;28;20211;-62
2022/08/16 03:53:27;;;;;;;1999.90;999.90;;;18.60;99.90;;;;;;5035095;28;20208;-63
2022/08/16 03:55:55;;;;;;;1999.90;999.90;;;18.70;99.90;;;;;;5034881;28;20240;-62
2022/08/16 03:58:23;;;;;;;1999.90;999.90;;;18.70;99.90;;;;;;5034872;28;20193;-62
2022/08/16 04:00:50;;;;;;;1999.90;999.90;;;18.70;99.90;;;;;;5034692;28;20214;-62
2022/08/16 04:03:17;;;;;;;1999.90;999.90;;;18.60;99.90;;;;;;5035022;28;20210;-61
2022/08/16 04:05:47;;;;;;;1999.90;999.90;;;18.60;99.90;;;;;;5034955;28;20222;-61
2022/08/16 04:08:15;;;;;;;1999.90;999.90;;;18.60;99.90;;;;;;5034738;28;20245;-62
2022/08/16 04:10:42;;;;;;;1999.90;999.90;;;18.50;99.90;;;;;;5034471;28;20211;-62
2022/08/16 04:13:09;;;;;;;1999.90;999.90;;;18.50;99.90;;;;;;5034695;28;20199;-62
2022/08/16 04:15:37;;;;;;;1999.90;999.90;;;18.50;99.90;;;;;;5034472;28;20672;-62
2022/08/16 04:18:05;;;;;;;1999.90;999.90;;;18.60;99.90;;;;;;5034742;28;20192;-62
2022/08/16 04:20:32;;;;;;;1999.90;999.90;;;18.60;99.90;;;;;;5034642;28;20199;-62
2022/08/16 04:23:00;;;;;;;1999.90;999.90;;;18.60;99.90;;;;;;5034544;28;20219;-62
2022/08/16 04:25:27;;;;;;;1999.90;999.90;;;18.60;99.90;;;;;;5034151;28;20226;-62
2022/08/16 04:27:55;;;;;;;1999.90;999.90;;;18.60;99.90;;;;;;5034052;28;20569;-62
2022/08/16 04:30:23;;;;;;;1999.90;999.90;;;18.70;99.90;;;;;;5034110;28;20196;-61
2022/08/16 04:32:52;;;;;;;1999.90;999.90;;;18.70;99.90;;;;;;5034020;28;20232;-62
2022/08/16 04:35:22;;;;;;;1999.90;999.90;;;18.70;99.90;;;;;;5034386;28;20210;-62
2022/08/16 04:37:50;;;;;;;1999.90;999.90;;;18.70;99.90;;;;;;5034071;28;20211;-62
2022/08/16 04:40:20;;;;;;;1999.90;999.90;;;18.60;99.90;;;;;;5034237;28;20250;-62
2022/08/16 04:42:47;;;;;;;1999.90;999.90;;;18.60;99.90;;;;;;5033811;28;20220;-62
2022/08/16 04:45:16;;;;;;;1999.90;999.90;;;18.60;99.90;;;;;;5034061;28;20196;-62
2022/08/16 04:47:44;;;;;;;1999.90;999.90;;;18.50;99.90;;;;;;5034062;28;20214;-62
2022/08/16 04:50:14;;;;;;;1999.90;999.90;;;18.50;99.90;;;;;;5033700;28;20204;-62
2022/08/16 04:52:41;;;;;;;1999.90;999.90;;;18.50;99.90;;;;;;5033756;28;20748;-62
2022/08/16 04:55:10;;;;;;;1999.90;999.90;;;18.50;99.90;;;;;;5033943;28;20210;-62
2022/08/16 04:57:38;;;;;;;1999.90;999.90;;;18.50;99.90;;;;;;5033829;28;20192;-62
2022/08/16 05:00:10;;;;;;;1999.90;999.90;;;18.60;99.90;;;;;;5033507;28;20543;-61
2022/08/16 05:02:38;;;;;;;1999.90;999.90;;;18.60;99.90;;;;;;5033417;28;20215;-61
2022/08/16 05:05:05;;;;;;;1999.90;999.90;;;18.60;99.90;;;;;;5033775;28;20203;-61
2022/08/16 05:07:34;;;;;;;1999.90;999.90;;;18.60;99.90;;;;;;5033698;28;20210;-61
2022/08/16 05:10:01;;;;;;;1999.90;999.90;;;18.60;99.90;;;;;;5033383;28;20210;-62
2022/08/16 05:12:28;;;;;;;1999.90;999.90;;;18.50;99.90;;;;;;5033321;28;20200;-62
2022/08/16 05:14:55;;;;;;;1999.90;999.90;;;18.50;99.90;;;;;;5033237;28;20589;-62
2022/08/16 05:17:23;;;;;;;1999.90;999.90;;;18.50;99.90;;;;;;5033545;28;20205;-62
2022/08/16 05:19:50;;;;;;;1999.90;999.90;;;18.60;99.90;;;;;;5032748;28;20872;-61
2022/08/16 05:22:17;;;;;;;1999.90;999.90;;;18.70;99.90;;;;;;5033331;28;20250;-62
2022/08/16 05:24:46;;;;;;;1999.90;999.90;;;18.90;99.90;;;;;;5033413;28;20200;-62
2022/08/16 05:27:13;;;;;;;1999.90;999.90;;;19.10;99.90;;;;;;5033375;28;20558;-62
2022/08/16 05:29:40;;;;;;;1999.90;999.90;;;19.20;99.90;;;;;;5033169;28;20200;-62
2022/08/16 05:32:07;;;;;;;1999.90;999.90;;;19.30;99.90;;;;;;5032656;28;20215;-62
2022/08/16 05:34:35;;;;;;;1999.90;999.90;;;19.40;99.90;;;;;;5033252;28;20195;-62
2022/08/16 05:37:02;;;;;;;1999.90;999.90;;;19.50;99.90;;;;;;5033122;28;20246;-65
2022/08/16 05:39:29;;;;;;;1999.90;999.90;;;19.60;99.90;;;;;;5032803;28;20693;-62
2022/08/16 05:41:58;;;;;;;1999.90;999.90;;;19.70;99.90;;;;;;5033008;28;20221;-62
2022/08/16 05:44:25;;;;;;;1999.90;999.90;;;19.80;99.90;;;;;;5032829;28;20203;-61
2022/08/16 05:46:55;;;;;;;1999.90;999.90;;;19.90;99.90;;;;;;5033024;28;20200;-61
2022/08/16 05:49:22;;;;;;;1999.90;999.90;;;19.90;99.90;;;;;;5032541;28;20205;-61
2022/08/16 05:51:49;;;;;;;1999.90;999.90;;;19.90;99.90;;;;;;5032556;28;20662;-61
2022/08/16 05:54:17;;;;;;;1999.90;999.90;;;20.10;99.90;;;;;;5032488;28;20199;-61
2022/08/16 05:56:45;;;;;;;1999.90;999.90;;;20.30;99.90;;;;;;5031991;28;20668;-61
2022/08/16 05:59:16;;;;;;;1999.90;999.90;;;20.70;99.90;;;;;;5032295;28;20213;-61
2022/08/16 06:01:44;;;;;;;1999.90;999.90;;;21.10;99.90;;;;;;5032390;28;20184;-61
2022/08/16 06:04:13;;;;;;;1999.90;999.90;;;21.30;99.90;;;;;;5032545;28;20200;-61
2022/08/16 06:06:42;;;;;;;1999.90;999.90;;;21.50;99.90;;;;;;5032740;28;20210;-61
2022/08/16 06:09:09;;;;;;;1999.90;999.90;;;21.60;99.90;;;;;;5032655;28;20204;-61
2022/08/16 06:11:36;;;;;;;1999.90;999.90;;;21.80;99.90;;;;;;5030451;28;20206;-61
2022/08/16 06:14:04;;;;;;;1999.90;999.90;;;22.00;99.90;;;;;;5024802;28;20200;-61
2022/08/16 06:16:32;;;;;;;1999.90;999.90;;;22.30;99.90;;;;;;5022616;28;20205;-62
2022/08/16 06:18:59;;;;;;;1999.90;999.90;;;22.70;99.90;;;;;;5023320;28;20187;-60
2022/08/16 06:21:26;;;;;;;1999.90;999.90;;;22.70;99.90;;;;;;5022997;28;20192;-60
2022/08/16 06:23:54;;;;;;;1999.90;999.90;;;22.80;99.90;;;;;;5022709;28;20716;-60
2022/08/16 06:26:21;;;;;;;1999.90;999.90;;;23.00;99.90;;;;;;5021458;28;20201;-61
2022/08/16 06:28:48;;;;;;;1999.90;999.90;;;23.30;99.90;;;;;;5022929;28;20193;-61
2022/08/16 06:31:16;;;;;;;1999.90;999.90;;;23.40;99.90;;;;;;5023062;28;20654;-60
2022/08/16 06:33:45;;;;;;;1999.90;999.90;;;23.20;99.90;;;;;;5025295;28;20725;-60
2022/08/16 06:36:14;;;;;;;1999.90;999.90;;;23.40;99.90;;;;;;5021815;28;20201;-61
2022/08/16 06:38:41;;;;;;;1999.90;999.90;;;23.60;99.90;;;;;;5016315;28;20612;-61
2022/08/16 06:41:09;;;;;;;1999.90;999.90;;;23.50;99.90;;;;;;5016360;28;20239;-61
2022/08/16 06:43:37;;;;;;;1999.90;999.90;;;23.60;99.90;;;;;;5016186;28;20215;-60
2022/08/16 06:46:08;;;;;;;1999.90;999.90;;;23.80;99.90;;;;;;5016197;28;20272;-61
2022/08/16 06:48:36;;;;;;;1999.90;999.90;;;24.00;99.90;;;;;;5016190;28;20185;-60
2022/08/16 06:51:06;;;;;;;1999.90;999.90;;;24.00;99.90;;;;;;5016073;28;20201;-61
2022/08/16 06:53:35;;;;;;;1999.90;999.90;;;24.00;99.90;;;;;;5016404;28;20193;-61
2022/08/16 06:56:04;;;;;;;1999.90;999.90;;;23.70;99.90;;;;;;5016000;28;20199;-62
2022/08/16 06:58:31;;;;;;;1999.90;999.90;;;24.20;99.90;;;;;;5016179;28;20211;-60
2022/08/16 07:00:59;;;;;;;1999.90;999.90;;;24.40;99.90;;;;;;5016155;28;20201;-60
2022/08/16 07:03:26;;;;;;;1999.90;999.90;;;24.70;99.90;;;;;;5015925;28;20209;-61
2022/08/16 07:05:53;;;;;;;1999.90;999.90;;;24.60;99.90;;;;;;5016211;28;20254;-61
2022/08/16 07:08:22;;;;;;;1999.90;999.90;;;24.70;99.90;;;;;;5016237;28;20188;-61
2022/08/16 07:10:49;;;;;;;1999.90;999.90;;;24.70;99.90;;;;;;5015867;28;20704;-61
2022/08/16 07:13:17;;;;;;;1999.90;999.90;;;24.60;99.90;;;;;;5016054;28;20215;-62
2022/08/16 07:15:44;;;;;;;1999.90;999.90;;;24.80;99.90;;;;;;5015372;28;20231;-61
2022/08/16 07:18:11;;;;;;;1999.90;999.90;;;25.10;1.00;;;;;;5015765;28;20698;-61
2022/08/16 07:20:38;;;;;;;1999.90;999.90;;;25.20;1.00;;;;;;5015605;28;20197;-62
2022/08/16 07:23:06;;;;;;;1999.90;999.90;;;24.90;1.00;;;;;;5015827;28;20224;-62
2022/08/16 07:25:35;;;;;;;1999.90;999.90;;;24.50;53.10;;;;;;5021906;28;20200;-62
2022/08/16 07:28:03;;;;;;;1999.90;999.90;;;24.10;99.90;;;;;;5035511;28;20200;-62
2022/08/16 07:30:31;;;;;;;1999.90;999.90;;;23.80;99.90;;;;;;5035208;28;20665;-62
2022/08/16 07:32:58;;;;;;;1999.90;999.90;;;24.00;99.90;;;;;;5035186;28;20224;-61
2022/08/16 07:35:26;;;;;;;1999.90;999.90;;;24.90;99.90;;;;;;5035135;28;20205;-59
2022/08/16 07:37:53;;;;;;;1999.90;999.90;;;25.50;1.00;;;;;;5035438;28;20207;-61
2022/08/16 07:40:20;;;;;;;1999.90;999.90;;;26.00;50.50;;;;;;5035393;28;20200;-63
2022/08/16 07:42:49;;;;;;;1999.90;999.90;;;26.30;99.90;;;;;;5034800;28;20223;-62
2022/08/16 07:45:16;;;;;;;1999.90;999.90;;;25.90;76.90;;;;;;5035296;28;20204;-62
2022/08/16 07:47:43;;;;;;;1999.90;999.90;;;25.40;1.00;;;;;;5034960;28;20203;-62
2022/08/16 07:50:12;;;;;;;1999.90;999.90;;;25.20;1.00;;;;;;5035190;28;20200;-62
2022/08/16 07:52:40;;;;;;;1999.90;999.90;;;24.70;1.00;;;;;;5035117;28;20200;-62
2022/08/16 07:55:09;;;;;;;1999.90;999.90;;;24.80;2.70;;;;;;5035139;28;20196;-64
2022/08/16 07:57:38;;;;;;;1999.90;999.90;;;24.90;1.00;;;;;;5034693;28;20195;-63
2022/08/16 08:00:08;;;;;;;1999.90;999.90;;;25.10;99.90;;;;;;5034465;28;20188;-63
2022/08/16 08:02:35;;;;;;;1999.90;999.90;;;24.90;99.90;;;;;;5034396;28;20220;-62
2022/08/16 08:05:03;;;;;;;1999.90;999.90;;;25.00;99.90;;;;;;5034942;28;20200;-62
2022/08/16 08:07:30;;;;;;;1999.90;999.90;;;25.40;1.00;;;;;;5034954;28;20192;-63
2022/08/16 08:09:58;;;;;;;1999.90;999.90;;;25.40;1.00;;;;;;5034861;28;20200;-63
2022/08/16 08:12:25;;;;;;;1999.90;999.90;;;25.80;1.00;;;;;;5034796;28;20203;-63
2022/08/16 08:14:52;;;;;;;1999.90;999.90;;;26.50;76.90;;;;;;5034425;28;20703;-63
2022/08/16 08:17:21;;;;;;;1999.90;999.90;;;26.40;1.00;;;;;;5034395;28;20203;-63
2022/08/16 08:19:48;;;;;;;1999.90;999.90;;;26.80;1.00;;;;;;5034439;28;20196;-63
2022/08/16 08:22:15;;;;;;;1999.90;999.90;;;26.90;1.00;;;;;;5034378;28;20222;-63
2022/08/16 08:24:42;;;;;;;1999.90;999.90;;;27.30;99.90;;;;;;5034245;28;20227;-63
2022/08/16 08:27:09;;;;;;;1999.90;999.90;;;27.00;99.90;;;;;;5034120;28;20212;-63
2022/08/16 08:29:37;;;;;;;1999.90;999.90;;;27.30;99.90;;;;;;5034361;28;20203;-63
2022/08/16 08:32:06;;;;;;;1999.90;999.90;;;27.40;98.80;;;;;;5033811;28;20562;-64
2022/08/16 08:34:35;;;;;;;1999.90;999.90;;;27.80;51.90;;;;;;5034356;28;20189;-64
2022/08/16 08:37:02;;;;;;;1999.90;999.90;;;28.20;1.00;;;;;;5034293;28;20204;-64
2022/08/16 08:39:29;;;;;;;1999.90;999.90;;;28.10;99.90;;;;;;5034247;28;20206;-64
2022/08/16 08:41:56;;;;;;;1999.90;999.90;;;28.20;99.90;;;;;;5033981;28;20200;-65
2022/08/16 08:44:23;;;;;;;1999.90;999.90;;;28.50;99.90;;;;;;5034136;28;20226;-64
2022/08/16 08:46:50;;;;;;;1999.90;999.90;;;28.30;99.90;;;;;;5033753;28;20211;-64
2022/08/16 08:49:17;;;;;;;1999.90;999.90;;;28.10;1.00;;;;;;5033774;28;20200;-62
2022/08/16 08:51:46;;;;;;;1999.90;999.90;;;27.80;1.00;;;;;;5033754;28;20204;-62
2022/08/16 08:54:14;;;;;;;1999.90;999.90;;;27.00;1.00;;;;;;5033117;28;20202;-61
2022/08/16 08:56:41;;;;;;;1999.90;999.90;;;26.50;99.90;;;;;;5033800;28;20219;-61
2022/08/16 08:59:08;;;;;;;1999.90;999.90;;;26.60;99.90;;;;;;5033814;28;20196;-61
2022/08/16 09:01:38;;;;;;;1999.90;999.90;;;26.90;2.70;;;;;;5033497;28;20208;-61
2022/08/16 09:04:06;;;;;;;1999.90;999.90;;;26.90;1.00;;;;;;5033336;28;20593;-61
2022/08/16 09:06:34;;;;;;;1999.90;999.90;;;26.50;99.90;;;;;;5033371;28;20192;-62
2022/08/16 09:09:03;;;;;;;1999.90;999.90;;;26.40;1.00;;;;;;5033582;28;20201;-61
2022/08/16 09:11:30;;;;;;;1999.90;999.90;;;27.20;1.00;;;;;;5033183;28;20208;-62
2022/08/16 09:13:57;;;;;;;1999.90;999.90;;;27.90;1.00;;;;;;5033144;28;20203;-61
2022/08/16 09:16:25;;;;;;;1999.90;999.90;;;28.30;99.90;;;;;;5033172;28;20669;-62
2022/08/16 09:18:52;;;;;;;1999.90;999.90;;;28.90;99.90;;;;;;5033028;28;20205;-62
2022/08/16 09:21:19;;;;;;;1999.90;999.90;;;29.50;99.90;;;;;;5033121;28;20196;-62
2022/08/16 09:23:47;;;;;;;1999.90;999.90;;;29.90;99.90;;;;;;5033193;28;20204;-62
2022/08/16 09:26:16;;;;;;;1999.90;999.90;;;29.40;1.00;;;;;;5032848;28;20200;-62
2022/08/16 09:28:44;;;;;;;1999.90;999.90;;;29.30;99.90;;;;;;5033030;28;20200;-62
2022/08/16 09:31:11;;;;;;;1999.90;999.90;;;29.70;99.90;;;;;;5032823;28;20214;-62
2022/08/16 09:33:39;;;;;;;1999.90;999.90;;;29.50;1.00;;;;;;5032819;28;20303;-62
2022/08/16 09:36:07;;;;;;;1999.90;999.90;;;29.90;99.90;;;;;;5033257;28;20573;-62
2022/08/16 09:38:35;;;;;;;1999.90;999.90;;;29.70;99.90;;;;;;5032807;28;20247;-62
2022/08/16 09:41:05;;;;;;;1999.90;999.90;;;29.80;99.90;;;;;;5033032;28;20209;-62
2022/08/16 09:43:35;;;;;;;1999.90;999.90;;;30.00;99.90;;;;;;5032920;28;20235;-62
2022/08/16 09:46:06;;;;;;;1999.90;999.90;;;30.30;1.00;;;;;;5033063;28;20188;-62
2022/08/16 09:48:33;;;;;;;1999.90;999.90;;;30.90;1.00;;;;;;5032635;28;20210;-62
2022/08/16 09:51:00;;;;;;;1999.90;999.90;;;30.60;99.90;;;;;;5032575;28;20204;-62
2022/08/16 09:53:28;;;;;;;1999.90;999.90;;;30.50;99.90;;;;;;5032822;28;20212;-62
2022/08/16 09:55:56;;;;;;;1999.90;999.90;;;30.80;99.90;;;;;;5032594;28;20674;-62
2022/08/16 09:58:25;;;;;;;1999.90;999.90;;;31.10;99.90;;;;;;5032658;28;20200;-62
2022/08/16 10:00:54;;;;;;;1999.90;999.90;;;31.10;1.00;;;;;;5032356;28;20204;-62
2022/08/16 10:03:22;;;;;;;1999.90;999.90;;;31.50;1.00;;;;;;5032643;28;20223;-61
2022/08/16 10:05:49;;;;;;;1999.90;999.90;;;32.10;1.00;;;;;;5032620;28;20196;-62
2022/08/16 10:08:16;;;;;;;1999.90;999.90;;;31.80;1.00;;;;;;5032294;28;20760;-62
2022/08/16 10:13:10;;;;;;;1999.90;999.90;;;31.90;1.00;;;;;;5032670;28;20226;-62
2022/08/16 10:13:33;;;;;;;1999.90;999.90;;;31.90;1.00;;;;;;5032619;28;20180;-62
2022/08/16 10:16:01;;;;;;;1999.90;999.90;;;31.80;39.20;;;;;;5032279;28;20188;-62
2022/08/16 10:18:31;;;;;;;1999.90;999.90;;;32.10;1.00;;;;;;5032241;28;20665;-62
2022/08/16 10:20:58;;;;;;;1999.90;999.90;;;31.90;1.00;;;;;;5032563;28;20215;-61
2022/08/16 10:23:28;;;;;;;1999.90;999.90;;;31.70;1.00;;;;;;5031952;28;20305;-61
2022/08/16 10:25:55;;;;;;;1999.90;999.90;;;31.20;99.90;;;;;;5032453;28;20203;-62
2022/08/16 10:28:22;;;;;;;1999.90;999.90;;;30.80;1.00;;;;;;5031997;28;20204;-62
2022/08/16 10:30:49;;;;;;;1999.90;999.90;;;30.90;1.00;;;;;;5032064;28;20206;-62
2022/08/16 10:33:18;;;;;;;1999.90;999.90;;;31.40;1.00;;;;;;5032075;28;20224;-62
2022/08/16 10:35:46;;;;;;;1999.90;999.90;;;31.30;1.00;;;;;;5032030;28;20683;-62
2022/08/16 10:38:15;;;;;;;1999.90;999.90;;;30.90;1.00;;;;;;5032266;28;20200;-62
2022/08/16 10:40:42;;;;;;;1999.90;999.90;;;31.50;99.90;;;;;;5032007;28;20199;-62
2022/08/16 10:43:10;;;;;;;1999.90;999.90;;;31.40;99.90;;;;;;5032028;28;20684;-62
2022/08/16 10:45:39;;;;;;;1999.90;999.90;;;31.50;1.00;;;;;;5031927;28;20196;-62
2022/08/16 10:48:08;;;;;;;1999.90;999.90;;;30.70;1.00;;;;;;5032327;28;20191;-62
2022/08/16 10:50:38;;;;;;;1999.90;999.90;;;30.80;1.00;;;;;;5032205;28;20253;-61
2022/08/16 10:53:05;;;;;;;1999.90;999.90;;;31.10;1.00;;;;;;5032217;28;20216;-61
2022/08/16 10:55:35;;;;;;;1999.90;999.90;;;30.90;1.00;;;;;;5032135;28;20207;-61
2022/08/16 10:58:03;;;;;;;1999.90;999.90;;;29.90;1.00;;;;;;5031809;28;20548;-61
2022/08/16 11:00:34;;;;;;;1999.90;999.90;;;29.10;99.90;;;;;;5031828;28;20192;-61
2022/08/16 11:03:02;;;;;;;1999.90;999.90;;;28.70;99.90;;;;;;5032122;28;20180;-61
2022/08/16 11:05:31;;;;;;;1999.90;999.90;;;28.80;99.90;;;;;;5031687;28;20294;-62
2022/08/16 11:08:00;;;;;;;1999.90;999.90;;;30.00;99.90;;;;;;5031753;28;20658;-61
2022/08/16 11:10:34;;;;;;;1999.90;999.90;;;30.90;1.00;;;;;;5031817;28;20199;-62
2022/08/16 11:13:02;;;;;;;1999.90;999.90;;;31.30;99.90;;;;;;5032157;28;20541;-62
2022/08/16 11:15:29;;;;;;;1999.90;999.90;;;31.30;1.00;;;;;;5031636;28;20273;-62
2022/08/16 11:17:56;;;;;;;1999.90;999.90;;;31.70;1.00;;;;;;5034922;28;20202;-62
2022/08/16 11:20:23;;;;;;;1999.90;999.90;;;31.90;99.90;;;;;;5035463;28;20207;-62
2022/08/16 11:22:52;;;;;;;1999.90;999.90;;;31.90;42.70;;;;;;5035519;28;20202;-62
2022/08/16 11:25:24;;;;;;;1999.90;999.90;;;32.50;90.20;;;;;;5035541;28;20212;-62
2022/08/16 11:27:53;;;;;;;1999.90;999.90;;;32.40;18.30;;;;;;5035609;28;20185;-61
2022/08/16 11:30:20;;;;;;;1999.90;999.90;;;32.00;99.90;;;;;;5035609;28;20201;-62
2022/08/16 11:32:47;;;;;;;1999.90;999.90;;;30.90;99.90;;;;;;5035027;28;20228;-62
2022/08/16 11:35:17;;;;;;;1999.90;999.90;;;30.50;99.90;;;;;;5035181;28;20657;-62
2022/08/16 11:37:46;;;;;;;1999.90;999.90;;;29.80;1.00;;;;;;5035371;28;20200;-62
2022/08/16 11:40:14;;;;;;;1999.90;999.90;;;29.60;1.00;;;;;;5035437;28;20196;-62
2022/08/16 11:42:43;;;;;;;1999.90;999.90;;;29.50;1.00;;;;;;5035026;28;20219;-63
2022/08/16 11:45:11;;;;;;;1999.90;999.90;;;28.90;1.00;;;;;;5035294;28;20246;-62
2022/08/16 11:47:38;;;;;;;1999.90;999.90;;;28.80;1.00;;;;;;5035243;28;20211;-62
2022/08/16 11:50:07;;;;;;;1999.90;999.90;;;28.70;25.20;;;;;;5035177;28;20200;-62
2022/08/16 11:52:35;;;;;;;1999.90;999.90;;;28.70;1.00;;;;;;5034818;28;20208;-62
2022/08/16 11:55:02;;;;;;;1999.90;999.90;;;28.90;1.00;;;;;;5035148;28;20197;-62
2022/08/16 11:57:29;;;;;;;1999.90;999.90;;;29.30;98.20;;;;;;5034983;28;20196;-62
2022/08/16 11:59:59;;;;;;;1999.90;999.90;;;29.80;1.00;;;;;;5035068;28;20197;-62
2022/08/16 12:02:26;;;;;;;1999.90;999.90;;;30.10;19.80;;;;;;5034897;28;20196;-61
2022/08/16 12:04:53;;;;;;;1999.90;999.90;;;30.30;1.00;;;;;;5034926;28;20231;-62